ラスベガス の空港の天気 - METARとTAF

マッカラン国際空港 ( KLAS / LAS ) - アメリカ合衆国 ネバダ州ラスベガス
飛行場実況気象(Metar)
観測時間04/30 06:56 PDT (04/30 13:56 UTC)
風向・風速静穏 0m/s
視程10km以上
天気現象
少しの雲 雲底高度 7620m
気温16.1℃
湿度18%
気圧1018.9hPa
METARKLAS 301356Z 00000KT 10SM FEW250 16/M08 A3013 RMK AO2 SLP189 T01611083
過去の天気等 Google飛行場航空写真 Wunderground天気予報

過去48時間のMETAR

飛行場予報(TAF)
発表時間: 4/30 04:38 PDT (4/30 11:38 UTC)
予報対象時間: 30日5時 PDT ~ 1日5時 PDT
風向・風速不定 3m/s
視程10km以上
なし
30日12時 PDT から
風向・風速東北東 3m/s
視程10km以上
なし
30日20時 PDT から
風向・風速西南西 4m/s
視程10km以上
なし
KLAS 301138Z 3012/0112 VRB05KT P6SM SKC
FM301900 07006KT P6SM SKC
FM010300 24007KT P6SM SKC